sensor_id;sensor_type;location;lat;lon;timestamp;P1;durP1;ratioP1;P2;durP2;ratioP2
7719;SDS011;3902;49.474;8.616;2023-11-19T00:01:26;4.00;;;2.70;;
7719;SDS011;3902;49.474;8.616;2023-11-19T00:03:52;2.30;;;2.10;;
7719;SDS011;3902;49.474;8.616;2023-11-19T00:06:18;2.73;;;2.40;;
7719;SDS011;3902;49.474;8.616;2023-11-19T00:08:44;3.50;;;2.80;;
7719;SDS011;3902;49.474;8.616;2023-11-19T00:11:09;3.00;;;2.70;;
7719;SDS011;3902;49.474;8.616;2023-11-19T00:13:35;3.33;;;2.73;;
7719;SDS011;3902;49.474;8.616;2023-11-19T00:16:01;2.37;;;2.17;;
7719;SDS011;3902;49.474;8.616;2023-11-19T00:18:29;2.77;;;2.47;;
7719;SDS011;3902;49.474;8.616;2023-11-19T00:20:54;2.47;;;2.13;;
7719;SDS011;3902;49.474;8.616;2023-11-19T00:23:20;2.83;;;2.40;;
7719;SDS011;3902;49.474;8.616;2023-11-19T00:25:45;2.53;;;2.33;;
7719;SDS011;3902;49.474;8.616;2023-11-19T00:28:12;2.50;;;2.30;;
7719;SDS011;3902;49.474;8.616;2023-11-19T00:30:38;2.43;;;2.00;;
7719;SDS011;3902;49.474;8.616;2023-11-19T00:33:05;2.40;;;2.20;;
7719;SDS011;3902;49.474;8.616;2023-11-19T00:35:31;2.20;;;2.00;;
7719;SDS011;3902;49.474;8.616;2023-11-19T00:37:57;2.10;;;1.93;;
7719;SDS011;3902;49.474;8.616;2023-11-19T00:40:22;2.53;;;2.33;;
7719;SDS011;3902;49.474;8.616;2023-11-19T00:42:48;2.70;;;2.40;;
7719;SDS011;3902;49.474;8.616;2023-11-19T00:45:14;2.00;;;1.83;;
7719;SDS011;3902;49.474;8.616;2023-11-19T00:47:40;2.27;;;2.00;;
7719;SDS011;3902;49.474;8.616;2023-11-19T00:50:06;1.70;;;1.60;;
7719;SDS011;3902;49.474;8.616;2023-11-19T00:52:34;3.53;;;1.70;;
7719;SDS011;3902;49.474;8.616;2023-11-19T00:55:00;1.87;;;1.67;;
7719;SDS011;3902;49.474;8.616;2023-11-19T00:57:26;1.77;;;1.67;;
7719;SDS011;3902;49.474;8.616;2023-11-19T00:59:52;1.67;;;1.53;;
7719;SDS011;3902;49.474;8.616;2023-11-19T01:02:17;2.70;;;1.93;;
7719;SDS011;3902;49.474;8.616;2023-11-19T01:04:43;1.90;;;1.70;;
7719;SDS011;3902;49.474;8.616;2023-11-19T01:07:09;1.90;;;1.50;;
7719;SDS011;3902;49.474;8.616;2023-11-19T01:09:37;1.50;;;1.40;;
7719;SDS011;3902;49.474;8.616;2023-11-19T01:12:03;2.37;;;1.80;;
7719;SDS011;3902;49.474;8.616;2023-11-19T01:14:30;1.57;;;1.47;;
7719;SDS011;3902;49.474;8.616;2023-11-19T01:16:55;1.53;;;1.43;;
7719;SDS011;3902;49.474;8.616;2023-11-19T01:19:21;1.80;;;1.40;;
7719;SDS011;3902;49.474;8.616;2023-11-19T01:21:48;2.50;;;1.70;;
7719;SDS011;3902;49.474;8.616;2023-11-19T01:24:13;1.53;;;1.43;;
7719;SDS011;3902;49.474;8.616;2023-11-19T01:26:39;1.70;;;1.60;;
7719;SDS011;3902;49.474;8.616;2023-11-19T01:29:10;2.10;;;1.20;;
7719;SDS011;3902;49.474;8.616;2023-11-19T01:31:38;1.53;;;1.43;;
7719;SDS011;3902;49.474;8.616;2023-11-19T01:34:04;1.30;;;1.20;;
7719;SDS011;3902;49.474;8.616;2023-11-19T01:36:30;1.50;;;1.40;;
7719;SDS011;3902;49.474;8.616;2023-11-19T01:38:55;1.43;;;1.10;;
7719;SDS011;3902;49.474;8.616;2023-11-19T01:41:21;2.13;;;1.23;;
7719;SDS011;3902;49.474;8.616;2023-11-19T01:43:46;1.30;;;1.20;;
7719;SDS011;3902;49.474;8.616;2023-11-19T01:46:12;1.60;;;1.50;;
7719;SDS011;3902;49.474;8.616;2023-11-19T01:48:42;1.30;;;1.20;;
7719;SDS011;3902;49.474;8.616;2023-11-19T01:51:10;1.40;;;1.30;;
7719;SDS011;3902;49.474;8.616;2023-11-19T01:53:37;1.30;;;1.20;;
7719;SDS011;3902;49.474;8.616;2023-11-19T01:56:04;1.37;;;1.20;;
7719;SDS011;3902;49.474;8.616;2023-11-19T01:58:34;1.93;;;1.30;;
7719;SDS011;3902;49.474;8.616;2023-11-19T02:01:00;1.20;;;1.10;;
7719;SDS011;3902;49.474;8.616;2023-11-19T02:03:28;1.33;;;1.20;;
7719;SDS011;3902;49.474;8.616;2023-11-19T02:05:56;1.37;;;1.10;;
7719;SDS011;3902;49.474;8.616;2023-11-19T02:08:22;1.13;;;1.03;;
7719;SDS011;3902;49.474;8.616;2023-11-19T02:10:48;1.93;;;1.10;;
7719;SDS011;3902;49.474;8.616;2023-11-19T02:13:13;1.20;;;1.07;;
7719;SDS011;3902;49.474;8.616;2023-11-19T02:15:40;1.20;;;1.10;;
7719;SDS011;3902;49.474;8.616;2023-11-19T02:18:19;1.43;;;1.30;;
7719;SDS011;3902;49.474;8.616;2023-11-19T02:20:49;1.30;;;1.17;;
7719;SDS011;3902;49.474;8.616;2023-11-19T02:23:15;1.57;;;1.27;;
7719;SDS011;3902;49.474;8.616;2023-11-19T02:25:41;1.13;;;1.03;;
7719;SDS011;3902;49.474;8.616;2023-11-19T02:28:12;2.23;;;1.60;;
7719;SDS011;3902;49.474;8.616;2023-11-19T02:30:38;1.30;;;1.13;;
7719;SDS011;3902;49.474;8.616;2023-11-19T02:33:03;1.17;;;1.07;;
7719;SDS011;3902;49.474;8.616;2023-11-19T02:35:32;1.10;;;1.00;;
7719;SDS011;3902;49.474;8.616;2023-11-19T02:37:59;1.33;;;1.20;;
7719;SDS011;3902;49.474;8.616;2023-11-19T02:40:25;2.40;;;1.10;;
7719;SDS011;3902;49.474;8.616;2023-11-19T02:42:54;1.20;;;1.10;;
7719;SDS011;3902;49.474;8.616;2023-11-19T02:45:22;1.30;;;1.20;;
7719;SDS011;3902;49.474;8.616;2023-11-19T02:47:48;1.40;;;1.30;;
7719;SDS011;3902;49.474;8.616;2023-11-19T02:50:14;1.10;;;1.00;;
7719;SDS011;3902;49.474;8.616;2023-11-19T02:52:43;1.30;;;1.20;;
7719;SDS011;3902;49.474;8.616;2023-11-19T02:55:12;1.10;;;1.00;;
7719;SDS011;3902;49.474;8.616;2023-11-19T02:57:39;1.47;;;1.30;;
7719;SDS011;3902;49.474;8.616;2023-11-19T03:00:11;1.30;;;1.20;;
7719;SDS011;3902;49.474;8.616;2023-11-19T03:02:44;1.30;;;1.10;;
7719;SDS011;3902;49.474;8.616;2023-11-19T03:05:19;2.23;;;1.10;;
7719;SDS011;3902;49.474;8.616;2023-11-19T03:07:44;1.60;;;1.10;;
7719;SDS011;3902;49.474;8.616;2023-11-19T03:10:10;1.33;;;1.23;;
7719;SDS011;3902;49.474;8.616;2023-11-19T03:12:39;1.20;;;1.10;;
7719;SDS011;3902;49.474;8.616;2023-11-19T03:15:05;1.30;;;1.20;;
7719;SDS011;3902;49.474;8.616;2023-11-19T03:17:32;1.40;;;1.30;;
7719;SDS011;3902;49.474;8.616;2023-11-19T03:19:59;1.63;;;1.30;;
7719;SDS011;3902;49.474;8.616;2023-11-19T03:22:26;1.30;;;1.20;;
7719;SDS011;3902;49.474;8.616;2023-11-19T03:24:51;2.13;;;1.13;;
7719;SDS011;3902;49.474;8.616;2023-11-19T03:27:17;1.37;;;1.20;;
7719;SDS011;3902;49.474;8.616;2023-11-19T03:29:42;1.30;;;1.20;;
7719;SDS011;3902;49.474;8.616;2023-11-19T03:32:08;1.73;;;1.63;;
7719;SDS011;3902;49.474;8.616;2023-11-19T03:34:33;1.53;;;1.23;;
7719;SDS011;3902;49.474;8.616;2023-11-19T03:36:59;1.27;;;1.17;;
7719;SDS011;3902;49.474;8.616;2023-11-19T03:39:24;1.50;;;1.40;;
7719;SDS011;3902;49.474;8.616;2023-11-19T03:41:52;1.63;;;1.53;;
7719;SDS011;3902;49.474;8.616;2023-11-19T03:44:17;1.50;;;1.40;;
7719;SDS011;3902;49.474;8.616;2023-11-19T03:46:44;1.80;;;1.70;;
7719;SDS011;3902;49.474;8.616;2023-11-19T03:49:09;1.60;;;1.50;;
7719;SDS011;3902;49.474;8.616;2023-11-19T03:51:35;1.50;;;1.40;;
7719;SDS011;3902;49.474;8.616;2023-11-19T03:54:00;1.80;;;1.70;;
7719;SDS011;3902;49.474;8.616;2023-11-19T03:56:26;1.80;;;1.70;;
7719;SDS011;3902;49.474;8.616;2023-11-19T03:58:52;1.60;;;1.50;;
7719;SDS011;3902;49.474;8.616;2023-11-19T04:01:17;1.60;;;1.50;;
7719;SDS011;3902;49.474;8.616;2023-11-19T04:03:43;1.60;;;1.50;;
7719;SDS011;3902;49.474;8.616;2023-11-19T04:06:09;1.70;;;1.60;;
7719;SDS011;3902;49.474;8.616;2023-11-19T04:08:34;1.70;;;1.60;;
7719;SDS011;3902;49.474;8.616;2023-11-19T04:11:00;4.00;;;1.53;;
7719;SDS011;3902;49.474;8.616;2023-11-19T04:13:28;1.40;;;1.30;;
7719;SDS011;3902;49.474;8.616;2023-11-19T04:15:53;1.57;;;1.47;;
7719;SDS011;3902;49.474;8.616;2023-11-19T04:18:19;1.70;;;1.60;;
7719;SDS011;3902;49.474;8.616;2023-11-19T04:20:44;4.03;;;1.40;;
7719;SDS011;3902;49.474;8.616;2023-11-19T04:23:09;1.73;;;1.63;;
7719;SDS011;3902;49.474;8.616;2023-11-19T04:25:36;1.70;;;1.60;;
7719;SDS011;3902;49.474;8.616;2023-11-19T04:28:01;1.60;;;1.50;;
7719;SDS011;3902;49.474;8.616;2023-11-19T04:30:27;1.50;;;1.40;;
7719;SDS011;3902;49.474;8.616;2023-11-19T04:32:53;1.90;;;1.60;;
7719;SDS011;3902;49.474;8.616;2023-11-19T04:35:18;1.50;;;1.40;;
7719;SDS011;3902;49.474;8.616;2023-11-19T04:37:44;1.50;;;1.40;;
7719;SDS011;3902;49.474;8.616;2023-11-19T04:40:09;1.43;;;1.33;;
7719;SDS011;3902;49.474;8.616;2023-11-19T04:42:36;1.67;;;1.50;;
7719;SDS011;3902;49.474;8.616;2023-11-19T04:45:05;1.30;;;1.20;;
7719;SDS011;3902;49.474;8.616;2023-11-19T04:47:31;1.73;;;1.50;;
7719;SDS011;3902;49.474;8.616;2023-11-19T04:49:58;1.43;;;1.33;;
7719;SDS011;3902;49.474;8.616;2023-11-19T04:52:23;1.30;;;1.20;;
7719;SDS011;3902;49.474;8.616;2023-11-19T04:54:49;1.37;;;1.23;;
7719;SDS011;3902;49.474;8.616;2023-11-19T04:57:14;1.30;;;1.20;;
7719;SDS011;3902;49.474;8.616;2023-11-19T04:59:40;1.30;;;1.20;;
7719;SDS011;3902;49.474;8.616;2023-11-19T05:02:06;1.27;;;1.17;;
7719;SDS011;3902;49.474;8.616;2023-11-19T05:04:33;2.50;;;1.40;;
7719;SDS011;3902;49.474;8.616;2023-11-19T05:06:58;1.50;;;1.30;;
7719;SDS011;3902;49.474;8.616;2023-11-19T05:09:24;1.47;;;1.37;;
7719;SDS011;3902;49.474;8.616;2023-11-19T05:11:49;2.60;;;1.33;;
7719;SDS011;3902;49.474;8.616;2023-11-19T05:14:15;1.30;;;1.20;;
7719;SDS011;3902;49.474;8.616;2023-11-19T05:16:41;2.23;;;1.40;;
7719;SDS011;3902;49.474;8.616;2023-11-19T05:19:07;1.60;;;1.40;;
7719;SDS011;3902;49.474;8.616;2023-11-19T05:21:33;2.47;;;1.60;;
7719;SDS011;3902;49.474;8.616;2023-11-19T05:24:01;1.37;;;1.27;;
7719;SDS011;3902;49.474;8.616;2023-11-19T05:26:29;2.27;;;1.30;;
7719;SDS011;3902;49.474;8.616;2023-11-19T05:28:55;1.47;;;1.37;;
7719;SDS011;3902;49.474;8.616;2023-11-19T05:31:20;1.43;;;1.33;;
7719;SDS011;3902;49.474;8.616;2023-11-19T05:33:46;1.70;;;1.60;;
7719;SDS011;3902;49.474;8.616;2023-11-19T05:36:11;3.23;;;1.73;;
7719;SDS011;3902;49.474;8.616;2023-11-19T05:38:37;1.47;;;1.37;;
7719;SDS011;3902;49.474;8.616;2023-11-19T05:41:03;1.40;;;1.30;;
7719;SDS011;3902;49.474;8.616;2023-11-19T05:43:29;1.60;;;1.50;;
7719;SDS011;3902;49.474;8.616;2023-11-19T05:45:55;2.07;;;1.57;;
7719;SDS011;3902;49.474;8.616;2023-11-19T05:48:21;2.20;;;1.50;;
7719;SDS011;3902;49.474;8.616;2023-11-19T05:50:46;2.60;;;1.57;;
7719;SDS011;3902;49.474;8.616;2023-11-19T05:53:14;2.23;;;1.40;;
7719;SDS011;3902;49.474;8.616;2023-11-19T05:55:40;1.50;;;1.40;;
7719;SDS011;3902;49.474;8.616;2023-11-19T05:58:13;1.60;;;1.40;;
7719;SDS011;3902;49.474;8.616;2023-11-19T06:00:39;1.60;;;1.50;;
7719;SDS011;3902;49.474;8.616;2023-11-19T06:03:05;3.67;;;2.17;;
7719;SDS011;3902;49.474;8.616;2023-11-19T06:05:32;4.70;;;1.73;;
7719;SDS011;3902;49.474;8.616;2023-11-19T06:07:57;1.63;;;1.53;;
7719;SDS011;3902;49.474;8.616;2023-11-19T06:10:23;1.77;;;1.63;;
7719;SDS011;3902;49.474;8.616;2023-11-19T06:12:55;2.20;;;1.77;;
7719;SDS011;3902;49.474;8.616;2023-11-19T06:15:25;2.77;;;2.07;;
7719;SDS011;3902;49.474;8.616;2023-11-19T06:17:52;2.63;;;1.67;;
7719;SDS011;3902;49.474;8.616;2023-11-19T06:20:17;1.43;;;1.33;;
7719;SDS011;3902;49.474;8.616;2023-11-19T06:22:44;1.83;;;1.67;;
7719;SDS011;3902;49.474;8.616;2023-11-19T06:25:10;1.60;;;1.50;;
7719;SDS011;3902;49.474;8.616;2023-11-19T06:27:36;1.73;;;1.63;;
7719;SDS011;3902;49.474;8.616;2023-11-19T06:30:02;1.80;;;1.60;;
7719;SDS011;3902;49.474;8.616;2023-11-19T06:32:28;1.60;;;1.50;;
7719;SDS011;3902;49.474;8.616;2023-11-19T06:34:53;2.10;;;1.27;;
7719;SDS011;3902;49.474;8.616;2023-11-19T06:37:19;1.73;;;1.60;;
7719;SDS011;3902;49.474;8.616;2023-11-19T06:39:45;3.00;;;1.87;;
7719;SDS011;3902;49.474;8.616;2023-11-19T06:42:10;3.17;;;1.40;;
7719;SDS011;3902;49.474;8.616;2023-11-19T06:44:36;1.73;;;1.63;;
7719;SDS011;3902;49.474;8.616;2023-11-19T06:47:01;2.57;;;1.70;;
7719;SDS011;3902;49.474;8.616;2023-11-19T06:49:27;1.93;;;1.63;;
7719;SDS011;3902;49.474;8.616;2023-11-19T06:51:53;1.60;;;1.50;;
7719;SDS011;3902;49.474;8.616;2023-11-19T06:54:19;1.50;;;1.33;;
7719;SDS011;3902;49.474;8.616;2023-11-19T06:56:44;1.50;;;1.40;;
7719;SDS011;3902;49.474;8.616;2023-11-19T06:59:10;2.00;;;1.63;;
7719;SDS011;3902;49.474;8.616;2023-11-19T07:01:35;2.03;;;1.70;;
7719;SDS011;3902;49.474;8.616;2023-11-19T07:04:02;2.23;;;1.50;;
7719;SDS011;3902;49.474;8.616;2023-11-19T07:06:34;2.37;;;1.63;;
7719;SDS011;3902;49.474;8.616;2023-11-19T07:09:00;1.60;;;1.37;;
7719;SDS011;3902;49.474;8.616;2023-11-19T07:11:35;1.63;;;1.40;;
7719;SDS011;3902;49.474;8.616;2023-11-19T07:14:04;1.53;;;1.40;;
7719;SDS011;3902;49.474;8.616;2023-11-19T07:16:31;2.80;;;1.37;;
7719;SDS011;3902;49.474;8.616;2023-11-19T07:18:57;1.50;;;1.40;;
7719;SDS011;3902;49.474;8.616;2023-11-19T07:21:25;1.37;;;1.27;;
7719;SDS011;3902;49.474;8.616;2023-11-19T07:23:50;1.53;;;1.43;;
7719;SDS011;3902;49.474;8.616;2023-11-19T07:26:17;2.40;;;1.20;;
7719;SDS011;3902;49.474;8.616;2023-11-19T07:28:43;5.20;;;1.30;;
7719;SDS011;3902;49.474;8.616;2023-11-19T07:31:10;2.20;;;1.90;;
7719;SDS011;3902;49.474;8.616;2023-11-19T07:33:35;3.47;;;2.03;;
7719;SDS011;3902;49.474;8.616;2023-11-19T07:36:01;1.83;;;1.67;;
7719;SDS011;3902;49.474;8.616;2023-11-19T07:38:26;2.40;;;2.20;;
7719;SDS011;3902;49.474;8.616;2023-11-19T07:40:52;2.10;;;1.93;;
7719;SDS011;3902;49.474;8.616;2023-11-19T07:43:17;2.20;;;1.67;;
7719;SDS011;3902;49.474;8.616;2023-11-19T07:45:43;1.87;;;1.70;;
7719;SDS011;3902;49.474;8.616;2023-11-19T07:48:10;2.20;;;2.00;;
7719;SDS011;3902;49.474;8.616;2023-11-19T07:50:38;1.80;;;1.70;;
7719;SDS011;3902;49.474;8.616;2023-11-19T07:53:05;1.60;;;1.50;;
7719;SDS011;3902;49.474;8.616;2023-11-19T07:55:32;1.63;;;1.50;;
7719;SDS011;3902;49.474;8.616;2023-11-19T07:57:57;2.40;;;1.60;;
7719;SDS011;3902;49.474;8.616;2023-11-19T08:00:23;2.30;;;1.50;;
7719;SDS011;3902;49.474;8.616;2023-11-19T08:02:48;2.03;;;1.37;;
7719;SDS011;3902;49.474;8.616;2023-11-19T08:05:14;1.50;;;1.40;;
7719;SDS011;3902;49.474;8.616;2023-11-19T08:07:39;1.50;;;1.40;;
7719;SDS011;3902;49.474;8.616;2023-11-19T08:10:05;1.40;;;1.30;;
7719;SDS011;3902;49.474;8.616;2023-11-19T08:12:34;1.50;;;1.40;;
7719;SDS011;3902;49.474;8.616;2023-11-19T08:15:01;1.40;;;1.30;;
7719;SDS011;3902;49.474;8.616;2023-11-19T08:17:27;2.37;;;1.60;;
7719;SDS011;3902;49.474;8.616;2023-11-19T08:19:53;1.40;;;1.30;;
7719;SDS011;3902;49.474;8.616;2023-11-19T08:22:18;1.67;;;1.57;;
7719;SDS011;3902;49.474;8.616;2023-11-19T08:24:43;1.87;;;1.40;;
7719;SDS011;3902;49.474;8.616;2023-11-19T08:27:09;1.80;;;1.40;;
7719;SDS011;3902;49.474;8.616;2023-11-19T08:29:35;1.60;;;1.50;;
7719;SDS011;3902;49.474;8.616;2023-11-19T08:32:01;1.63;;;1.50;;
7719;SDS011;3902;49.474;8.616;2023-11-19T08:34:28;1.60;;;1.50;;
7719;SDS011;3902;49.474;8.616;2023-11-19T08:36:53;1.73;;;1.63;;
7719;SDS011;3902;49.474;8.616;2023-11-19T08:39:19;1.70;;;1.60;;
7719;SDS011;3902;49.474;8.616;2023-11-19T08:41:46;1.80;;;1.63;;
7719;SDS011;3902;49.474;8.616;2023-11-19T08:44:12;1.90;;;1.80;;
7719;SDS011;3902;49.474;8.616;2023-11-19T08:46:38;1.83;;;1.63;;
7719;SDS011;3902;49.474;8.616;2023-11-19T08:49:04;1.80;;;1.70;;
7719;SDS011;3902;49.474;8.616;2023-11-19T08:51:30;1.87;;;1.60;;
7719;SDS011;3902;49.474;8.616;2023-11-19T08:53:56;2.00;;;1.80;;
7719;SDS011;3902;49.474;8.616;2023-11-19T08:56:22;2.40;;;1.50;;
7719;SDS011;3902;49.474;8.616;2023-11-19T08:58:48;1.63;;;1.53;;
7719;SDS011;3902;49.474;8.616;2023-11-19T09:01:14;1.60;;;1.50;;
7719;SDS011;3902;49.474;8.616;2023-11-19T09:03:39;2.67;;;1.53;;
7719;SDS011;3902;49.474;8.616;2023-11-19T09:06:05;1.83;;;1.63;;
7719;SDS011;3902;49.474;8.616;2023-11-19T09:08:31;1.90;;;1.50;;
7719;SDS011;3902;49.474;8.616;2023-11-19T09:10:56;1.90;;;1.33;;
7719;SDS011;3902;49.474;8.616;2023-11-19T09:13:22;2.60;;;1.50;;
7719;SDS011;3902;49.474;8.616;2023-11-19T09:15:48;1.60;;;1.50;;
7719;SDS011;3902;49.474;8.616;2023-11-19T09:18:13;1.90;;;1.70;;
7719;SDS011;3902;49.474;8.616;2023-11-19T09:20:39;1.70;;;1.60;;
7719;SDS011;3902;49.474;8.616;2023-11-19T09:23:05;1.63;;;1.53;;
7719;SDS011;3902;49.474;8.616;2023-11-19T09:25:31;1.70;;;1.60;;
7719;SDS011;3902;49.474;8.616;2023-11-19T09:27:57;1.70;;;1.30;;
7719;SDS011;3902;49.474;8.616;2023-11-19T09:30:22;2.07;;;1.80;;
7719;SDS011;3902;49.474;8.616;2023-11-19T09:32:48;1.80;;;1.50;;
7719;SDS011;3902;49.474;8.616;2023-11-19T09:35:13;3.33;;;1.60;;
7719;SDS011;3902;49.474;8.616;2023-11-19T09:37:39;1.70;;;1.60;;
7719;SDS011;3902;49.474;8.616;2023-11-19T09:40:05;4.17;;;2.07;;
7719;SDS011;3902;49.474;8.616;2023-11-19T09:42:35;1.83;;;1.70;;
7719;SDS011;3902;49.474;8.616;2023-11-19T09:45:12;2.07;;;1.87;;
7719;SDS011;3902;49.474;8.616;2023-11-19T09:47:42;2.30;;;2.07;;
7719;SDS011;3902;49.474;8.616;2023-11-19T09:50:10;3.73;;;2.90;;
7719;SDS011;3902;49.474;8.616;2023-11-19T09:52:41;4.07;;;2.83;;
7719;SDS011;3902;49.474;8.616;2023-11-19T09:55:07;2.13;;;1.93;;
7719;SDS011;3902;49.474;8.616;2023-11-19T09:57:33;2.33;;;1.90;;
7719;SDS011;3902;49.474;8.616;2023-11-19T10:00:02;4.10;;;2.60;;
7719;SDS011;3902;49.474;8.616;2023-11-19T10:02:30;2.70;;;2.50;;
7719;SDS011;3902;49.474;8.616;2023-11-19T10:04:58;3.20;;;2.90;;
7719;SDS011;3902;49.474;8.616;2023-11-19T10:07:27;2.57;;;2.37;;
7719;SDS011;3902;49.474;8.616;2023-11-19T10:09:53;3.10;;;2.77;;
7719;SDS011;3902;49.474;8.616;2023-11-19T10:12:18;3.77;;;2.37;;
7719;SDS011;3902;49.474;8.616;2023-11-19T10:14:44;2.67;;;2.47;;
7719;SDS011;3902;49.474;8.616;2023-11-19T10:17:10;2.37;;;2.10;;
7719;SDS011;3902;49.474;8.616;2023-11-19T10:19:36;2.00;;;1.80;;
7719;SDS011;3902;49.474;8.616;2023-11-19T10:22:05;2.90;;;2.57;;
7719;SDS011;3902;49.474;8.616;2023-11-19T10:24:31;2.57;;;2.37;;
7719;SDS011;3902;49.474;8.616;2023-11-19T10:27:01;3.10;;;2.70;;
7719;SDS011;3902;49.474;8.616;2023-11-19T10:29:29;3.77;;;3.00;;
7719;SDS011;3902;49.474;8.616;2023-11-19T10:31:57;3.10;;;2.03;;
7719;SDS011;3902;49.474;8.616;2023-11-19T10:34:26;4.43;;;2.10;;
7719;SDS011;3902;49.474;8.616;2023-11-19T10:36:52;4.60;;;1.90;;
7719;SDS011;3902;49.474;8.616;2023-11-19T10:39:18;3.30;;;1.93;;
7719;SDS011;3902;49.474;8.616;2023-11-19T10:41:45;3.30;;;1.60;;
7719;SDS011;3902;49.474;8.616;2023-11-19T10:44:11;3.10;;;1.67;;
7719;SDS011;3902;49.474;8.616;2023-11-19T10:46:37;4.10;;;1.90;;
7719;SDS011;3902;49.474;8.616;2023-11-19T10:49:04;4.87;;;2.17;;
7719;SDS011;3902;49.474;8.616;2023-11-19T10:51:31;3.20;;;2.30;;
7719;SDS011;3902;49.474;8.616;2023-11-19T10:53:57;3.93;;;2.00;;
7719;SDS011;3902;49.474;8.616;2023-11-19T10:56:29;3.20;;;1.60;;
7719;SDS011;3902;49.474;8.616;2023-11-19T10:58:55;4.17;;;2.20;;
7719;SDS011;3902;49.474;8.616;2023-11-19T11:01:24;5.03;;;2.00;;
7719;SDS011;3902;49.474;8.616;2023-11-19T11:03:58;3.87;;;1.70;;
7719;SDS011;3902;49.474;8.616;2023-11-19T11:06:25;2.80;;;1.70;;
7719;SDS011;3902;49.474;8.616;2023-11-19T11:08:51;4.10;;;1.70;;
7719;SDS011;3902;49.474;8.616;2023-11-19T11:11:18;2.40;;;1.60;;
7719;SDS011;3902;49.474;8.616;2023-11-19T11:13:46;4.93;;;2.10;;
7719;SDS011;3902;49.474;8.616;2023-11-19T11:16:14;2.50;;;1.50;;
7719;SDS011;3902;49.474;8.616;2023-11-19T11:18:43;2.37;;;1.90;;
7719;SDS011;3902;49.474;8.616;2023-11-19T11:21:14;2.63;;;1.80;;
7719;SDS011;3902;49.474;8.616;2023-11-19T11:34:53;2.77;;;1.53;;
7719;SDS011;3902;49.474;8.616;2023-11-19T11:40:02;3.73;;;1.60;;
7719;SDS011;3902;49.474;8.616;2023-11-19T11:42:35;3.63;;;1.60;;
7719;SDS011;3902;49.474;8.616;2023-11-19T11:45:11;1.90;;;1.70;;
7719;SDS011;3902;49.474;8.616;2023-11-19T11:50:18;5.27;;;1.80;;
7719;SDS011;3902;49.474;8.616;2023-11-19T11:57:53;2.60;;;1.60;;
7719;SDS011;3902;49.474;8.616;2023-11-19T12:02:55;3.20;;;1.80;;
7719;SDS011;3902;49.474;8.616;2023-11-19T12:05:22;5.30;;;2.07;;
7719;SDS011;3902;49.474;8.616;2023-11-19T12:07:58;5.07;;;1.83;;
7719;SDS011;3902;49.474;8.616;2023-11-19T12:10:26;3.57;;;1.70;;
7719;SDS011;3902;49.474;8.616;2023-11-19T12:12:58;4.63;;;1.73;;
7719;SDS011;3902;49.474;8.616;2023-11-19T12:15:25;3.43;;;1.47;;
7719;SDS011;3902;49.474;8.616;2023-11-19T12:17:52;2.53;;;1.60;;
7719;SDS011;3902;49.474;8.616;2023-11-19T12:20:20;2.63;;;1.70;;
7719;SDS011;3902;49.474;8.616;2023-11-19T12:22:47;2.53;;;1.60;;
7719;SDS011;3902;49.474;8.616;2023-11-19T12:25:14;3.00;;;1.80;;
7719;SDS011;3902;49.474;8.616;2023-11-19T12:27:48;4.70;;;1.77;;
7719;SDS011;3902;49.474;8.616;2023-11-19T12:30:21;3.70;;;1.57;;
7719;SDS011;3902;49.474;8.616;2023-11-19T12:32:49;3.47;;;1.60;;
7719;SDS011;3902;49.474;8.616;2023-11-19T12:35:14;4.73;;;1.70;;
7719;SDS011;3902;49.474;8.616;2023-11-19T12:37:46;3.03;;;1.70;;
7719;SDS011;3902;49.474;8.616;2023-11-19T12:40:19;2.60;;;1.73;;
7719;SDS011;3902;49.474;8.616;2023-11-19T12:42:49;2.60;;;1.63;;
7719;SDS011;3902;49.474;8.616;2023-11-19T12:45:19;2.60;;;1.60;;
7719;SDS011;3902;49.474;8.616;2023-11-19T12:47:47;3.03;;;2.00;;
7719;SDS011;3902;49.474;8.616;2023-11-19T12:50:14;4.90;;;2.77;;
7719;SDS011;3902;49.474;8.616;2023-11-19T12:52:42;2.70;;;2.47;;
7719;SDS011;3902;49.474;8.616;2023-11-19T12:57:54;4.43;;;2.23;;
7719;SDS011;3902;49.474;8.616;2023-11-19T13:00:21;5.80;;;1.83;;
7719;SDS011;3902;49.474;8.616;2023-11-19T13:02:49;2.53;;;1.70;;
7719;SDS011;3902;49.474;8.616;2023-11-19T13:05:33;4.43;;;1.83;;
7719;SDS011;3902;49.474;8.616;2023-11-19T13:08:05;2.90;;;1.47;;
7719;SDS011;3902;49.474;8.616;2023-11-19T13:10:32;2.27;;;1.50;;
7719;SDS011;3902;49.474;8.616;2023-11-19T13:12:59;2.03;;;1.83;;
7719;SDS011;3902;49.474;8.616;2023-11-19T13:15:29;3.93;;;1.90;;
7719;SDS011;3902;49.474;8.616;2023-11-19T13:17:54;4.67;;;1.97;;
7719;SDS011;3902;49.474;8.616;2023-11-19T13:20:20;2.37;;;1.50;;
7719;SDS011;3902;49.474;8.616;2023-11-19T13:22:56;3.37;;;1.60;;
7719;SDS011;3902;49.474;8.616;2023-11-19T13:25:22;6.93;;;2.33;;
7719;SDS011;3902;49.474;8.616;2023-11-19T13:27:48;4.20;;;1.87;;
7719;SDS011;3902;49.474;8.616;2023-11-19T13:30:13;3.53;;;1.80;;
7719;SDS011;3902;49.474;8.616;2023-11-19T13:32:39;3.33;;;1.60;;
7719;SDS011;3902;49.474;8.616;2023-11-19T13:35:05;4.60;;;1.87;;
7719;SDS011;3902;49.474;8.616;2023-11-19T13:37:33;5.33;;;1.97;;
7719;SDS011;3902;49.474;8.616;2023-11-19T13:39:59;2.83;;;1.60;;
7719;SDS011;3902;49.474;8.616;2023-11-19T13:42:25;4.00;;;2.23;;
7719;SDS011;3902;49.474;8.616;2023-11-19T13:44:50;3.00;;;2.00;;
7719;SDS011;3902;49.474;8.616;2023-11-19T13:47:16;4.03;;;2.20;;
7719;SDS011;3902;49.474;8.616;2023-11-19T13:49:43;5.63;;;2.60;;
7719;SDS011;3902;49.474;8.616;2023-11-19T13:52:10;4.20;;;2.13;;
7719;SDS011;3902;49.474;8.616;2023-11-19T13:54:36;3.40;;;2.43;;
7719;SDS011;3902;49.474;8.616;2023-11-19T13:57:02;4.63;;;2.30;;
7719;SDS011;3902;49.474;8.616;2023-11-19T13:59:29;4.57;;;2.30;;
7719;SDS011;3902;49.474;8.616;2023-11-19T14:01:56;2.90;;;2.07;;
7719;SDS011;3902;49.474;8.616;2023-11-19T14:04:21;4.30;;;2.10;;
7719;SDS011;3902;49.474;8.616;2023-11-19T14:06:47;3.50;;;1.90;;
7719;SDS011;3902;49.474;8.616;2023-11-19T14:09:12;10.73;;;1.80;;
7719;SDS011;3902;49.474;8.616;2023-11-19T14:11:38;2.77;;;1.60;;
7719;SDS011;3902;49.474;8.616;2023-11-19T14:14:03;3.83;;;2.10;;
7719;SDS011;3902;49.474;8.616;2023-11-19T14:16:29;6.97;;;1.97;;
7719;SDS011;3902;49.474;8.616;2023-11-19T14:18:54;2.17;;;1.50;;
7719;SDS011;3902;49.474;8.616;2023-11-19T14:21:20;5.83;;;1.80;;
7719;SDS011;3902;49.474;8.616;2023-11-19T14:23:46;2.80;;;1.87;;
7719;SDS011;3902;49.474;8.616;2023-11-19T14:26:11;2.17;;;1.60;;
7719;SDS011;3902;49.474;8.616;2023-11-19T14:28:37;3.30;;;2.13;;
7719;SDS011;3902;49.474;8.616;2023-11-19T14:31:03;3.20;;;2.03;;
7719;SDS011;3902;49.474;8.616;2023-11-19T14:33:29;3.50;;;1.90;;
7719;SDS011;3902;49.474;8.616;2023-11-19T14:35:54;3.37;;;1.97;;
7719;SDS011;3902;49.474;8.616;2023-11-19T14:38:20;3.67;;;1.97;;
7719;SDS011;3902;49.474;8.616;2023-11-19T14:40:46;4.30;;;2.17;;
7719;SDS011;3902;49.474;8.616;2023-11-19T14:43:12;5.93;;;2.30;;
7719;SDS011;3902;49.474;8.616;2023-11-19T14:45:40;4.10;;;2.20;;
7719;SDS011;3902;49.474;8.616;2023-11-19T14:48:05;2.40;;;1.70;;
7719;SDS011;3902;49.474;8.616;2023-11-19T14:50:31;2.63;;;1.90;;
7719;SDS011;3902;49.474;8.616;2023-11-19T14:52:56;4.63;;;2.20;;
7719;SDS011;3902;49.474;8.616;2023-11-19T14:55:23;3.97;;;2.00;;
7719;SDS011;3902;49.474;8.616;2023-11-19T14:57:48;3.90;;;1.90;;
7719;SDS011;3902;49.474;8.616;2023-11-19T15:00:15;4.77;;;1.90;;
7719;SDS011;3902;49.474;8.616;2023-11-19T15:02:41;2.27;;;1.73;;
7719;SDS011;3902;49.474;8.616;2023-11-19T15:05:07;5.93;;;2.40;;
7719;SDS011;3902;49.474;8.616;2023-11-19T15:07:37;4.07;;;2.00;;
7719;SDS011;3902;49.474;8.616;2023-11-19T15:10:02;4.20;;;2.10;;
7719;SDS011;3902;49.474;8.616;2023-11-19T15:12:29;5.37;;;2.37;;
7719;SDS011;3902;49.474;8.616;2023-11-19T15:14:54;3.10;;;1.97;;
7719;SDS011;3902;49.474;8.616;2023-11-19T15:17:20;3.03;;;2.33;;
7719;SDS011;3902;49.474;8.616;2023-11-19T15:19:46;3.50;;;2.03;;
7719;SDS011;3902;49.474;8.616;2023-11-19T15:22:12;4.50;;;2.30;;
7719;SDS011;3902;49.474;8.616;2023-11-19T15:24:38;5.23;;;2.97;;
7719;SDS011;3902;49.474;8.616;2023-11-19T15:27:04;4.27;;;2.43;;
7719;SDS011;3902;49.474;8.616;2023-11-19T15:29:30;5.70;;;2.17;;
7719;SDS011;3902;49.474;8.616;2023-11-19T15:31:58;6.03;;;2.47;;
7719;SDS011;3902;49.474;8.616;2023-11-19T15:34:23;3.40;;;1.87;;
7719;SDS011;3902;49.474;8.616;2023-11-19T15:36:50;4.07;;;2.40;;
7719;SDS011;3902;49.474;8.616;2023-11-19T15:39:15;3.93;;;2.60;;